Terminal Aerodrome Forecast
Issued by NWS Corpus Christi, TX

Home | Current Version | Previous Version | Text Only | Print | Product List | Glossary On
Versions: 1 2 3 4 5 6 7 8 9 10 11 12 13 14 15 16 17
743
FTUS44 KCRP 231726
TAFVCT
TAF
KVCT 231726Z 2318/2418 17012KT P6SM FEW040
     FM240200 13008KT P6SM SKC
     FM240800 15005KT 6SM BR FEW020
     FM241300 19010KT P6SM SCT025=

USA.gov is the U.S. government's official web portal to all federal, state and local government web resources and services.